createdAt,value
2017-06-28T00:00:11.177Z,0
2017-06-28T00:00:51.823Z,0
2017-06-28T00:01:32.622Z,0
2017-06-28T00:02:13.223Z,0
2017-06-28T00:02:53.793Z,0
2017-06-28T00:03:34.375Z,0
2017-06-28T00:04:14.977Z,0
2017-06-28T00:04:55.548Z,0
2017-06-28T00:05:36.138Z,0
2017-06-28T00:06:16.721Z,0
2017-06-28T00:06:57.285Z,0
2017-06-28T00:07:37.855Z,0
2017-06-28T00:08:18.431Z,0
2017-06-28T00:08:59.049Z,0
2017-06-28T00:09:39.657Z,0
2017-06-28T00:10:20.225Z,0
2017-06-28T00:11:00.926Z,0
2017-06-28T00:11:41.582Z,0
2017-06-28T00:12:22.144Z,0
2017-06-28T00:13:02.726Z,0
2017-06-28T00:13:43.309Z,0
2017-06-28T00:14:23.884Z,0
2017-06-28T00:15:04.478Z,0
2017-06-28T00:15:45.065Z,0
2017-06-28T00:16:25.642Z,0
2017-06-28T00:17:06.230Z,0
2017-06-28T00:17:46.826Z,0
2017-06-28T00:18:27.493Z,0
2017-06-28T00:19:08.050Z,0
2017-06-28T00:19:48.635Z,0
2017-06-28T00:20:29.215Z,0
2017-06-28T00:21:09.786Z,0
2017-06-28T00:21:50.390Z,0
2017-06-28T00:22:30.952Z,0
2017-06-28T00:23:11.537Z,0
2017-06-28T00:23:52.127Z,0
2017-06-28T00:24:32.695Z,0
2017-06-28T00:25:13.255Z,0
2017-06-28T00:25:53.847Z,0
2017-06-28T00:26:34.407Z,0
2017-06-28T00:27:14.974Z,0
2017-06-28T00:27:55.553Z,0
2017-06-28T00:28:36.141Z,0
2017-06-28T00:29:16.724Z,0
2017-06-28T00:29:57.306Z,0
2017-06-28T00:30:37.867Z,0
2017-06-28T00:31:18.446Z,0
2017-06-28T00:31:59.023Z,0
2017-06-28T00:32:39.595Z,0
2017-06-28T00:33:20.173Z,0
2017-06-28T00:34:00.753Z,0
2017-06-28T00:34:41.326Z,0
2017-06-28T00:35:21.896Z,0
2017-06-28T00:36:02.467Z,0
2017-06-28T00:36:43.032Z,0
2017-06-28T00:37:23.618Z,0
2017-06-28T00:38:04.211Z,0
2017-06-28T00:38:44.795Z,0
2017-06-28T00:39:25.385Z,0
2017-06-28T00:40:05.958Z,0
2017-06-28T00:40:46.522Z,0
2017-06-28T00:41:27.108Z,0
2017-06-28T00:42:07.694Z,0
2017-06-28T00:42:48.257Z,0
2017-06-28T00:43:28.820Z,0
2017-06-28T00:44:09.400Z,0
2017-06-28T00:44:49.962Z,0
2017-06-28T00:45:30.546Z,0
2017-06-28T00:46:11.150Z,0
2017-06-28T00:46:51.704Z,0
2017-06-28T00:47:32.275Z,0
2017-06-28T00:48:12.889Z,0
2017-06-28T00:48:53.476Z,0
2017-06-28T00:49:34.092Z,0
2017-06-28T00:50:14.704Z,0
2017-06-28T00:50:55.296Z,0
2017-06-28T00:51:35.868Z,0
2017-06-28T00:52:16.436Z,0
2017-06-28T00:52:57.034Z,0
2017-06-28T00:53:37.655Z,0
2017-06-28T00:54:18.229Z,0
2017-06-28T00:54:58.802Z,0
2017-06-28T00:55:39.367Z,0
2017-06-28T00:56:19.945Z,0
2017-06-28T00:57:00.547Z,0
2017-06-28T00:57:41.095Z,0
2017-06-28T00:58:21.655Z,0
2017-06-28T00:59:02.228Z,0
2017-06-28T00:59:42.808Z,0
2017-06-28T01:00:23.403Z,0
2017-06-28T01:01:03.976Z,0
2017-06-28T01:01:44.548Z,0
2017-06-28T01:02:25.121Z,0
2017-06-28T01:03:05.723Z,0
2017-06-28T01:03:46.291Z,0
2017-06-28T01:04:26.897Z,0
2017-06-28T01:05:07.481Z,0
2017-06-28T01:05:48.066Z,0
2017-06-28T01:06:28.648Z,0
2017-06-28T01:07:09.223Z,0
2017-06-28T01:07:49.795Z,0
2017-06-28T01:08:30.363Z,0
2017-06-28T01:09:10.939Z,0
2017-06-28T01:09:51.528Z,0
2017-06-28T01:10:32.103Z,0
2017-06-28T01:11:12.688Z,0
2017-06-28T01:11:53.254Z,0
2017-06-28T01:12:33.831Z,0
2017-06-28T01:13:14.407Z,0
2017-06-28T01:13:54.981Z,0
2017-06-28T01:14:35.571Z,0
2017-06-28T01:15:16.143Z,0
2017-06-28T01:15:56.717Z,0
2017-06-28T01:16:37.307Z,0
2017-06-28T01:17:17.897Z,0
2017-06-28T01:17:58.477Z,0
2017-06-28T01:18:39.080Z,0
2017-06-28T01:19:19.663Z,0
2017-06-28T01:20:00.221Z,0
2017-06-28T01:20:40.851Z,0
2017-06-28T01:21:21.408Z,0
2017-06-28T01:22:01.993Z,0
2017-06-28T01:22:42.563Z,0
2017-06-28T01:23:23.130Z,0
2017-06-28T01:24:03.705Z,0
2017-06-28T01:24:44.275Z,0
2017-06-28T01:25:24.867Z,0
2017-06-28T01:26:05.459Z,0
2017-06-28T01:26:46.032Z,0
2017-06-28T01:27:26.603Z,0
2017-06-28T01:28:07.195Z,0
2017-06-28T01:28:47.781Z,0
2017-06-28T01:29:28.359Z,0
2017-06-28T01:30:08.969Z,0
2017-06-28T01:30:49.537Z,0
2017-06-28T01:31:30.115Z,0
2017-06-28T01:32:10.683Z,0
2017-06-28T01:32:51.256Z,0
2017-06-28T01:33:31.821Z,0
2017-06-28T01:34:12.404Z,0
2017-06-28T01:34:52.998Z,0
2017-06-28T01:35:33.558Z,0
2017-06-28T01:36:14.125Z,0
2017-06-28T01:36:54.703Z,0
2017-06-28T01:37:35.263Z,0
2017-06-28T01:38:15.837Z,0
2017-06-28T01:38:56.422Z,0
2017-06-28T01:39:36.994Z,0
2017-06-28T01:40:17.565Z,0
2017-06-28T01:40:58.149Z,0
2017-06-28T01:41:38.743Z,0
2017-06-28T01:42:19.305Z,0
2017-06-28T01:42:59.892Z,0
2017-06-28T01:43:40.477Z,0
2017-06-28T01:44:21.051Z,0
2017-06-28T01:45:01.619Z,0
2017-06-28T01:45:42.251Z,0
2017-06-28T01:46:22.823Z,0
2017-06-28T01:47:03.408Z,0
2017-06-28T01:47:44.001Z,0
2017-06-28T01:48:24.576Z,0
2017-06-28T01:49:05.168Z,0
2017-06-28T01:49:45.749Z,0
2017-06-28T01:50:26.316Z,0
2017-06-28T01:51:06.934Z,0
2017-06-28T01:51:47.517Z,0
2017-06-28T01:52:28.115Z,0
2017-06-28T01:53:08.687Z,0
2017-06-28T01:53:49.272Z,0
2017-06-28T01:54:29.850Z,0
2017-06-28T01:55:10.419Z,0
2017-06-28T01:55:51.006Z,0
2017-06-28T01:56:31.586Z,0
2017-06-28T01:57:12.190Z,0
2017-06-28T01:57:52.778Z,0
2017-06-28T01:58:33.362Z,0
2017-06-28T01:59:13.948Z,0
2017-06-28T01:59:54.519Z,0
2017-06-28T02:00:35.117Z,0
2017-06-28T02:01:15.730Z,0
2017-06-28T02:01:56.296Z,0
2017-06-28T02:02:36.868Z,0
2017-06-28T02:03:17.438Z,0
2017-06-28T02:03:58.009Z,0
2017-06-28T02:04:38.581Z,0
2017-06-28T02:05:19.159Z,0
2017-06-28T02:05:59.754Z,0
2017-06-28T02:06:40.325Z,0
2017-06-28T02:07:20.889Z,0
2017-06-28T02:08:01.458Z,0
2017-06-28T02:08:42.069Z,0
2017-06-28T02:09:22.672Z,0
2017-06-28T02:10:03.285Z,0
2017-06-28T02:10:43.878Z,0
2017-06-28T02:11:24.450Z,0
2017-06-28T02:12:05.030Z,0
2017-06-28T02:12:45.595Z,0
2017-06-28T02:13:26.208Z,0
2017-06-28T02:14:06.779Z,0
2017-06-28T02:14:47.350Z,0
2017-06-28T02:15:27.943Z,0
2017-06-28T02:16:08.544Z,0
2017-06-28T02:16:49.105Z,0
2017-06-28T02:17:29.675Z,0
2017-06-28T02:18:10.250Z,0
2017-06-28T02:18:50.834Z,0
2017-06-28T02:19:31.412Z,0
2017-06-28T02:20:12.000Z,0
2017-06-28T02:20:52.620Z,0
2017-06-28T02:21:33.193Z,0
2017-06-28T02:22:13.786Z,0
2017-06-28T02:22:54.369Z,0
2017-06-28T02:23:34.971Z,0
2017-06-28T02:24:15.575Z,0
2017-06-28T02:24:56.161Z,0
2017-06-28T02:25:36.735Z,0
2017-06-28T02:26:17.313Z,0
2017-06-28T02:26:57.881Z,0
2017-06-28T02:27:38.466Z,0
2017-06-28T02:28:19.027Z,0
2017-06-28T02:28:59.607Z,0
2017-06-28T02:29:40.175Z,0
2017-06-28T02:30:20.734Z,0
2017-06-28T02:31:01.304Z,0
2017-06-28T02:31:41.889Z,0
2017-06-28T02:32:22.458Z,0
2017-06-28T02:33:03.028Z,0
2017-06-28T02:33:43.609Z,0
2017-06-28T02:34:24.162Z,0
2017-06-28T02:35:04.745Z,0
2017-06-28T02:35:45.326Z,0
2017-06-28T02:36:25.910Z,0
2017-06-28T02:37:06.537Z,0
2017-06-28T02:37:47.110Z,0
2017-06-28T02:38:27.683Z,0
2017-06-28T02:39:08.280Z,0
2017-06-28T02:39:48.863Z,0
2017-06-28T02:40:29.428Z,0
2017-06-28T02:41:10.007Z,0
2017-06-28T02:41:50.563Z,0
2017-06-28T02:42:31.187Z,0
2017-06-28T02:43:11.769Z,0
2017-06-28T02:43:52.347Z,0
2017-06-28T02:44:32.914Z,0
2017-06-28T02:45:13.486Z,0
2017-06-28T02:45:54.103Z,0
2017-06-28T02:46:34.676Z,0
2017-06-28T02:47:15.245Z,0
2017-06-28T02:47:55.819Z,0
2017-06-28T02:48:36.400Z,0
2017-06-28T02:49:16.996Z,0
2017-06-28T02:49:57.605Z,0
2017-06-28T02:50:38.183Z,0
2017-06-28T02:51:18.758Z,0
2017-06-28T02:51:59.321Z,0
2017-06-28T02:52:39.900Z,0
2017-06-28T02:53:20.525Z,0
2017-06-28T02:54:01.087Z,0
2017-06-28T02:54:41.657Z,0
2017-06-28T02:55:22.252Z,5
2017-06-28T02:56:02.826Z,5
2017-06-28T02:56:43.412Z,5
2017-06-28T02:57:23.979Z,5
2017-06-28T02:58:04.554Z,5
2017-06-28T02:58:45.149Z,5
2017-06-28T02:59:25.716Z,5
2017-06-28T03:00:06.321Z,5
2017-06-28T03:00:46.909Z,5
2017-06-28T03:01:27.512Z,5
2017-06-28T03:02:08.102Z,5
2017-06-28T03:02:48.679Z,5
2017-06-28T03:03:29.278Z,5
2017-06-28T03:04:09.865Z,5
2017-06-28T03:04:50.450Z,5
2017-06-28T03:05:31.031Z,5
2017-06-28T03:06:11.612Z,5
2017-06-28T03:06:52.199Z,5
2017-06-28T03:07:32.810Z,5
2017-06-28T03:08:13.399Z,5
2017-06-28T03:08:54.008Z,10
2017-06-28T03:09:34.598Z,10
2017-06-28T03:10:15.194Z,10
2017-06-28T03:10:55.783Z,10
2017-06-28T03:11:36.381Z,10
2017-06-28T03:12:16.946Z,10
2017-06-28T03:12:57.525Z,10
2017-06-28T03:13:38.080Z,10
2017-06-28T03:14:18.677Z,10
2017-06-28T03:14:59.250Z,10
2017-06-28T03:15:39.822Z,10
2017-06-28T03:16:20.422Z,10
2017-06-28T03:17:01.020Z,10
2017-06-28T03:17:41.589Z,10
2017-06-28T03:18:22.168Z,10
2017-06-28T03:19:02.733Z,10
2017-06-28T03:19:43.349Z,10
2017-06-28T03:20:23.928Z,10
2017-06-28T03:21:04.491Z,10
2017-06-28T03:21:45.060Z,10
2017-06-28T03:22:25.634Z,10
2017-06-28T03:23:06.206Z,10
2017-06-28T03:23:46.765Z,10
2017-06-28T03:24:27.332Z,10
2017-06-28T03:25:07.903Z,5
2017-06-28T03:25:48.510Z,5
2017-06-28T03:26:29.089Z,5
2017-06-28T03:27:09.660Z,5
2017-06-28T03:27:50.255Z,5
2017-06-28T03:28:30.826Z,5
2017-06-28T03:29:11.416Z,5
2017-06-28T03:29:51.991Z,5
2017-06-28T03:30:32.562Z,5
2017-06-28T03:31:13.129Z,5
2017-06-28T03:31:53.688Z,5
2017-06-28T03:32:34.245Z,5
2017-06-28T03:33:14.852Z,5
2017-06-28T03:33:55.486Z,10
2017-06-28T03:34:36.054Z,10
2017-06-28T03:35:16.636Z,10
2017-06-28T03:35:57.205Z,10
2017-06-28T03:36:37.770Z,10
2017-06-28T03:37:18.348Z,10
2017-06-28T03:37:58.910Z,10
2017-06-28T03:38:39.482Z,10
2017-06-28T03:39:20.057Z,10
2017-06-28T03:40:00.631Z,10
2017-06-28T03:40:41.203Z,10
2017-06-28T03:41:21.787Z,10
2017-06-28T03:42:02.383Z,10
2017-06-28T03:42:42.935Z,10
2017-06-28T03:43:23.491Z,10
2017-06-28T03:44:04.100Z,10
2017-06-28T03:44:44.693Z,10
2017-06-28T03:45:25.258Z,10
2017-06-28T03:46:05.839Z,10
2017-06-28T03:46:46.412Z,10
2017-06-28T03:47:27.005Z,15
2017-06-28T03:48:07.579Z,15
2017-06-28T03:48:48.183Z,15
2017-06-28T03:49:28.758Z,15
2017-06-28T03:50:09.332Z,15
2017-06-28T03:50:49.928Z,15
2017-06-28T03:51:30.505Z,15
2017-06-28T03:52:11.077Z,15
2017-06-28T03:52:51.652Z,15
2017-06-28T03:53:32.229Z,20
2017-06-28T03:54:12.796Z,20
2017-06-28T03:54:53.388Z,20
2017-06-28T03:55:33.969Z,20
2017-06-28T03:56:14.533Z,20
2017-06-28T03:56:55.103Z,25
2017-06-28T03:57:35.677Z,25
2017-06-28T03:58:16.239Z,25
2017-06-28T03:58:56.857Z,25
2017-06-28T03:59:37.424Z,30
2017-06-28T04:00:17.980Z,30
2017-06-28T04:00:58.547Z,30
2017-06-28T04:01:39.106Z,30
2017-06-28T04:02:19.682Z,25
2017-06-28T04:03:00.255Z,25
2017-06-28T04:03:40.825Z,25
2017-06-28T04:04:21.402Z,25
2017-06-28T04:05:01.972Z,25
2017-06-28T04:05:42.561Z,25
2017-06-28T04:06:23.136Z,25
2017-06-28T04:07:03.708Z,30
2017-06-28T04:07:44.293Z,30
2017-06-28T04:08:24.870Z,30
2017-06-28T04:09:05.444Z,30
2017-06-28T04:09:46.033Z,30
2017-06-28T04:10:26.601Z,35
2017-06-28T04:11:07.173Z,35
2017-06-28T04:11:47.733Z,35
2017-06-28T04:12:28.360Z,35
2017-06-28T04:13:08.949Z,35
2017-06-28T04:13:49.536Z,35
2017-06-28T04:14:30.114Z,35
2017-06-28T04:15:10.688Z,35
2017-06-28T04:15:51.252Z,35
2017-06-28T04:16:31.831Z,35
2017-06-28T04:17:12.408Z,35
2017-06-28T04:17:52.990Z,35
2017-06-28T04:18:33.554Z,35
2017-06-28T04:19:14.126Z,35
2017-06-28T04:19:54.691Z,40
2017-06-28T04:20:35.249Z,40
2017-06-28T04:21:15.812Z,40
2017-06-28T04:21:56.404Z,40
2017-06-28T04:22:36.999Z,40
2017-06-28T04:23:17.575Z,40
2017-06-28T04:23:58.144Z,40
2017-06-28T04:24:38.716Z,40
2017-06-28T04:25:19.290Z,40
2017-06-28T04:25:59.888Z,40
2017-06-28T04:26:40.473Z,45
2017-06-28T04:27:21.057Z,45
2017-06-28T04:28:01.636Z,50
2017-06-28T04:28:42.221Z,55
2017-06-28T04:29:22.810Z,55
2017-06-28T04:30:03.380Z,60
2017-06-28T04:30:43.991Z,60
2017-06-28T04:31:24.555Z,60
2017-06-28T04:32:05.137Z,60
2017-06-28T04:32:45.741Z,55
2017-06-28T04:33:26.310Z,55
2017-06-28T04:34:06.872Z,55
2017-06-28T04:34:47.455Z,55
2017-06-28T04:35:28.029Z,55
2017-06-28T04:36:08.608Z,55
2017-06-28T04:36:49.195Z,55
2017-06-28T04:37:29.743Z,55
2017-06-28T04:38:10.351Z,55
2017-06-28T04:38:50.976Z,55
2017-06-28T04:39:31.559Z,50
2017-06-28T04:40:12.135Z,50
2017-06-28T04:40:52.686Z,50
2017-06-28T04:41:33.331Z,50
2017-06-28T04:42:13.900Z,50
2017-06-28T04:42:54.503Z,50
2017-06-28T04:43:35.092Z,50
2017-06-28T04:44:15.669Z,50
2017-06-28T04:44:56.242Z,50
2017-06-28T04:45:36.836Z,50
2017-06-28T04:46:17.397Z,50
2017-06-28T04:46:57.965Z,50
2017-06-28T04:47:38.542Z,50
2017-06-28T04:48:19.150Z,50
2017-06-28T04:48:59.741Z,50
2017-06-28T04:49:40.297Z,50
2017-06-28T04:50:20.863Z,50
2017-06-28T04:51:01.449Z,55
2017-06-28T04:51:42.035Z,60
2017-06-28T04:52:22.638Z,65
2017-06-28T04:53:03.207Z,65
2017-06-28T04:53:43.778Z,70
2017-06-28T04:54:24.370Z,70
2017-06-28T04:55:04.981Z,75
2017-06-28T04:55:45.569Z,80
2017-06-28T04:56:26.151Z,85
2017-06-28T04:57:06.718Z,85
2017-06-28T04:57:47.289Z,85
2017-06-28T04:58:27.864Z,85
2017-06-28T04:59:08.429Z,90
2017-06-28T04:59:48.992Z,90
2017-06-28T05:00:29.588Z,90
2017-06-28T05:01:10.165Z,90
2017-06-28T05:01:50.736Z,95
2017-06-28T05:02:31.310Z,95
2017-06-28T05:03:11.878Z,95
2017-06-28T05:03:52.449Z,95
2017-06-28T05:04:33.003Z,150
2017-06-28T05:05:13.575Z,330
2017-06-28T05:05:54.154Z,585
2017-06-28T05:06:34.742Z,830
2017-06-28T05:07:15.310Z,1080
2017-06-28T05:07:55.895Z,1260
2017-06-28T05:08:36.475Z,1310
2017-06-28T05:09:17.048Z,1330
2017-06-28T05:09:57.614Z,1345
2017-06-28T05:10:38.203Z,1335
2017-06-28T05:11:18.808Z,1120
2017-06-28T05:11:59.381Z,770
2017-06-28T05:12:39.957Z,395
2017-06-28T05:13:20.545Z,145
2017-06-28T05:14:01.112Z,120
2017-06-28T05:14:41.689Z,125
2017-06-28T05:15:22.261Z,130
2017-06-28T05:16:02.823Z,140
2017-06-28T05:16:43.399Z,240
2017-06-28T05:17:23.966Z,665
2017-06-28T05:18:04.544Z,1090
2017-06-28T05:18:45.120Z,1365
2017-06-28T05:19:25.682Z,1270
2017-06-28T05:20:06.276Z,1200
2017-06-28T05:20:46.843Z,1245
2017-06-28T05:21:27.404Z,1225
2017-06-28T05:22:07.990Z,635
2017-06-28T05:22:48.570Z,410
2017-06-28T05:23:29.153Z,340
2017-06-28T05:24:09.744Z,505
2017-06-28T05:24:50.313Z,810
2017-06-28T05:25:30.886Z,860
2017-06-28T05:26:11.466Z,1055
2017-06-28T05:26:52.047Z,760
2017-06-28T05:27:32.635Z,680
2017-06-28T05:28:13.229Z,920
2017-06-28T05:28:53.812Z,1190
2017-06-28T05:29:34.389Z,1460
2017-06-28T05:30:14.985Z,1185
2017-06-28T05:30:55.551Z,935
2017-06-28T05:31:36.116Z,1315
2017-06-28T05:32:16.714Z,1205
2017-06-28T05:32:57.290Z,1570
2017-06-28T05:33:37.873Z,1530
2017-06-28T05:34:18.449Z,1645
2017-06-28T05:34:59.038Z,1395
2017-06-28T05:35:39.634Z,1385
2017-06-28T05:36:20.232Z,1585
2017-06-28T05:37:00.829Z,1395
2017-06-28T05:37:41.419Z,1125
2017-06-28T05:38:22.006Z,1255
2017-06-28T05:39:02.616Z,1465
2017-06-28T05:39:43.194Z,1265
2017-06-28T05:40:23.803Z,1525
2017-06-28T05:41:04.412Z,1650
2017-06-28T05:41:44.988Z,1700
2017-06-28T05:42:25.574Z,1595
2017-06-28T05:43:06.150Z,1535
2017-06-28T05:43:46.750Z,1475
2017-06-28T05:44:27.319Z,1645
2017-06-28T05:45:07.890Z,1675
2017-06-28T05:45:48.543Z,1685
2017-06-28T05:46:29.115Z,1650
2017-06-28T05:47:09.696Z,1675
2017-06-28T05:47:50.267Z,1675
2017-06-28T05:48:30.856Z,1680
2017-06-28T05:49:11.440Z,1660
2017-06-28T05:49:52.028Z,1610
2017-06-28T05:50:32.608Z,1610
2017-06-28T05:51:13.181Z,1615
2017-06-28T05:51:53.759Z,1645
2017-06-28T05:52:34.336Z,1625
2017-06-28T05:53:14.932Z,1640
2017-06-28T05:53:55.511Z,1690
2017-06-28T05:54:36.083Z,1605
2017-06-28T05:55:16.695Z,1445
2017-06-28T05:55:57.298Z,1410
2017-06-28T05:56:37.856Z,1510
2017-06-28T05:57:18.434Z,1615
2017-06-28T05:57:59.030Z,1610
2017-06-28T05:58:39.611Z,1545
2017-06-28T05:59:20.192Z,1500
2017-06-28T06:00:00.785Z,1575
2017-06-28T06:00:41.454Z,1695
2017-06-28T06:01:22.095Z,1760
2017-06-28T06:02:02.667Z,1605
2017-06-28T06:02:43.279Z,1365
2017-06-28T06:03:23.852Z,1345
2017-06-28T06:04:04.457Z,1535
2017-06-28T06:04:45.058Z,1665
2017-06-28T06:05:25.640Z,1650
2017-06-28T06:06:06.231Z,1690
2017-06-28T06:06:46.844Z,1725
2017-06-28T06:07:27.452Z,1740
2017-06-28T06:08:08.056Z,1750
2017-06-28T06:08:48.657Z,1680
2017-06-28T06:09:29.272Z,1725
2017-06-28T06:10:09.865Z,1685
2017-06-28T06:10:50.453Z,1715
2017-06-28T06:11:31.027Z,1730
2017-06-28T06:12:11.598Z,1770
2017-06-28T06:12:52.174Z,1770
2017-06-28T06:13:32.747Z,1750
2017-06-28T06:14:13.340Z,1815
2017-06-28T06:14:53.930Z,1830
2017-06-28T06:15:34.508Z,1685
2017-06-28T06:16:15.114Z,1670
2017-06-28T06:16:55.685Z,1690
2017-06-28T06:17:36.282Z,1750
2017-06-28T06:18:16.904Z,1775
2017-06-28T06:18:57.487Z,1820
2017-06-28T06:19:38.080Z,1810
2017-06-28T06:20:18.656Z,1805
2017-06-28T06:20:59.236Z,1800
2017-06-28T06:21:39.828Z,1815
2017-06-28T06:22:20.442Z,1830
2017-06-28T06:23:01.030Z,1800
2017-06-28T06:23:41.617Z,1675
2017-06-28T06:24:22.193Z,1615
2017-06-28T06:25:02.782Z,1530
2017-06-28T06:25:43.399Z,1715
2017-06-28T06:26:24.007Z,1770
2017-06-28T06:27:04.565Z,1770
2017-06-28T06:27:45.168Z,1855
2017-06-28T06:28:25.756Z,1830
2017-06-28T06:29:06.384Z,1765
2017-06-28T06:29:46.964Z,1755
2017-06-28T06:30:27.544Z,1835
2017-06-28T06:31:08.150Z,1860
2017-06-28T06:31:48.716Z,1770
2017-06-28T06:32:29.290Z,1830
2017-06-28T06:33:09.885Z,1945
2017-06-28T06:33:50.476Z,1895
2017-06-28T06:34:31.055Z,1835
2017-06-28T06:35:11.643Z,1855
2017-06-28T06:35:52.353Z,1925
2017-06-28T06:36:33.006Z,1865
2017-06-28T06:37:13.577Z,1895
2017-06-28T06:37:54.153Z,1880
2017-06-28T06:38:34.729Z,1815
2017-06-28T06:39:15.323Z,1780
2017-06-28T06:39:55.952Z,1845
2017-06-28T06:40:36.534Z,1970
2017-06-28T06:41:17.120Z,1930
2017-06-28T06:41:57.722Z,1850
2017-06-28T06:42:38.330Z,1830
2017-06-28T06:43:18.935Z,1855
2017-06-28T06:43:59.526Z,1920
2017-06-28T06:44:40.102Z,1890
2017-06-28T06:45:20.680Z,1915
2017-06-28T06:46:01.308Z,1920
2017-06-28T06:46:41.900Z,1965
2017-06-28T06:47:22.504Z,1975
2017-06-28T06:48:03.094Z,1950
2017-06-28T06:48:43.708Z,1955
2017-06-28T06:49:24.302Z,1955
2017-06-28T06:50:04.895Z,1950
2017-06-28T06:50:45.483Z,1965
2017-06-28T06:51:26.088Z,1910
2017-06-28T06:52:06.736Z,2065
2017-06-28T06:52:47.307Z,2040
2017-06-28T06:53:27.930Z,1945
2017-06-28T06:54:08.507Z,1835
2017-06-28T06:54:49.116Z,1910
2017-06-28T06:55:29.709Z,1940
2017-06-28T06:56:10.308Z,1950
2017-06-28T06:56:50.877Z,1955
2017-06-28T06:57:31.495Z,1910
2017-06-28T06:58:12.083Z,1840
2017-06-28T06:58:52.684Z,1835
2017-06-28T06:59:33.283Z,1905
2017-06-28T07:00:13.881Z,1815
2017-06-28T07:00:54.467Z,1835
2017-06-28T07:01:35.048Z,2020
2017-06-28T07:02:15.636Z,1980
2017-06-28T07:02:56.258Z,2000
2017-06-28T07:03:36.836Z,2030
2017-06-28T07:04:17.416Z,1965
2017-06-28T07:04:58.004Z,1905
2017-06-28T07:05:38.593Z,1870
2017-06-28T07:06:19.168Z,1830
2017-06-28T07:06:59.745Z,1795
2017-06-28T07:07:40.328Z,1725
2017-06-28T07:08:20.923Z,1660
2017-06-28T07:09:01.498Z,1490
2017-06-28T07:09:42.074Z,1330
2017-06-28T07:10:22.686Z,1225
2017-06-28T07:11:03.312Z,1130
2017-06-28T07:11:43.904Z,1025
2017-06-28T07:12:24.480Z,970
2017-06-28T07:13:05.052Z,885
2017-06-28T07:13:45.629Z,835
2017-06-28T07:14:26.246Z,785
2017-06-28T07:15:06.829Z,785
2017-06-28T07:15:47.431Z,755
2017-06-28T07:16:28.003Z,720
2017-06-28T07:17:08.595Z,670
2017-06-28T07:17:49.171Z,650
2017-06-28T07:18:29.758Z,635
2017-06-28T07:19:10.368Z,615
2017-06-28T07:19:50.954Z,640
2017-06-28T07:20:31.532Z,640
2017-06-28T07:21:12.115Z,645
2017-06-28T07:21:52.692Z,645
2017-06-28T07:22:33.327Z,625
2017-06-28T07:23:13.884Z,615
2017-06-28T07:23:54.611Z,605
2017-06-28T07:24:35.216Z,605
2017-06-28T07:25:15.817Z,600
2017-06-28T07:25:56.411Z,590
2017-06-28T07:26:36.998Z,585
2017-06-28T07:27:17.596Z,575
2017-06-28T07:27:58.191Z,575
2017-06-28T07:28:38.792Z,575
2017-06-28T07:29:19.395Z,570
2017-06-28T07:30:00.107Z,570
2017-06-28T07:30:40.641Z,570
2017-06-28T07:31:21.235Z,545
2017-06-28T07:32:01.811Z,545
2017-06-28T07:32:42.396Z,550
2017-06-28T07:33:22.998Z,555
2017-06-28T07:34:03.578Z,550
2017-06-28T07:34:44.175Z,545
2017-06-28T07:35:24.749Z,545
2017-06-28T07:36:05.340Z,530
2017-06-28T07:36:45.932Z,520
2017-06-28T07:37:26.509Z,530
2017-06-28T07:38:07.111Z,520
2017-06-28T07:38:47.726Z,505
2017-06-28T07:39:28.327Z,495
2017-06-28T07:40:08.928Z,500
2017-06-28T07:40:49.626Z,505
2017-06-28T07:41:30.206Z,465
2017-06-28T07:42:10.836Z,370
2017-06-28T07:42:51.422Z,320
2017-06-28T07:43:32.262Z,330
2017-06-28T07:44:12.854Z,260
2017-06-28T07:44:53.573Z,325
2017-06-28T07:45:34.558Z,365
2017-06-28T07:46:15.159Z,355
2017-06-28T07:46:55.774Z,340
2017-06-28T07:47:36.352Z,355
2017-06-28T07:48:16.954Z,295
2017-06-28T07:48:57.570Z,240
2017-06-28T07:49:38.250Z,240
2017-06-28T07:50:18.861Z,280
2017-06-28T07:50:59.492Z,275
2017-06-28T07:51:40.139Z,225
2017-06-28T07:52:20.683Z,225
2017-06-28T07:53:01.333Z,230
2017-06-28T07:53:42.187Z,260
2017-06-28T07:54:22.765Z,385
2017-06-28T07:55:03.360Z,440
2017-06-28T07:55:43.969Z,505
2017-06-28T07:56:24.542Z,560
2017-06-28T07:57:05.111Z,600
2017-06-28T07:57:45.719Z,605
2017-06-28T07:58:26.482Z,590
2017-06-28T07:59:07.094Z,585
2017-06-28T07:59:47.830Z,560
2017-06-28T08:00:28.440Z,535
2017-06-28T08:01:09.112Z,520
2017-06-28T08:01:49.911Z,525
2017-06-28T08:02:30.562Z,440
2017-06-28T08:03:11.154Z,390
2017-06-28T08:03:51.817Z,405
2017-06-28T08:04:32.390Z,405
2017-06-28T08:05:13.038Z,395
2017-06-28T08:05:53.687Z,385
2017-06-28T08:06:34.291Z,385
2017-06-28T08:07:14.890Z,385
2017-06-28T08:07:55.466Z,375
2017-06-28T08:08:36.084Z,370
2017-06-28T08:09:16.705Z,370
2017-06-28T08:09:57.318Z,365
2017-06-28T08:10:37.899Z,360
2017-06-28T08:11:18.672Z,355
2017-06-28T08:11:59.561Z,350
2017-06-28T08:12:40.147Z,350
2017-06-28T08:13:21.193Z,345
2017-06-28T08:14:01.954Z,340
2017-06-28T08:14:42.697Z,330
2017-06-28T08:15:23.299Z,310
2017-06-28T08:16:03.887Z,300
2017-06-28T08:16:44.530Z,285
2017-06-28T08:17:25.161Z,280
2017-06-28T08:18:05.774Z,285
2017-06-28T08:18:46.365Z,295
2017-06-28T08:19:26.955Z,315
2017-06-28T08:20:07.635Z,310
2017-06-28T08:20:48.222Z,310
2017-06-28T08:21:28.828Z,315
2017-06-28T08:22:09.414Z,320
2017-06-28T08:22:50.025Z,310
2017-06-28T08:23:30.590Z,300
2017-06-28T08:24:11.172Z,300
2017-06-28T08:24:51.741Z,305
2017-06-28T08:25:32.332Z,305
2017-06-28T08:26:12.914Z,305
2017-06-28T08:26:53.498Z,295
2017-06-28T08:27:34.101Z,290
2017-06-28T08:28:14.690Z,285
2017-06-28T08:28:55.286Z,285
2017-06-28T08:29:35.856Z,285
2017-06-28T08:30:16.424Z,280
2017-06-28T08:30:57.007Z,275
2017-06-28T08:31:37.588Z,270
2017-06-28T08:32:18.163Z,270
2017-06-28T08:32:58.734Z,265
2017-06-28T08:33:39.328Z,265
2017-06-28T08:34:19.915Z,265
2017-06-28T08:35:00.488Z,265
2017-06-28T08:35:41.066Z,265
2017-06-28T08:36:21.879Z,265
2017-06-28T08:37:02.488Z,265
2017-06-28T08:37:43.058Z,265
2017-06-28T08:38:23.674Z,260
2017-06-28T08:39:04.252Z,245
2017-06-28T08:39:44.825Z,250
2017-06-28T08:40:25.413Z,245
2017-06-28T08:41:06.028Z,240
2017-06-28T08:41:46.646Z,240
2017-06-28T08:42:27.225Z,235
2017-06-28T08:43:07.812Z,230
2017-06-28T08:43:48.400Z,230
2017-06-28T08:44:28.985Z,230
2017-06-28T08:45:09.581Z,225
2017-06-28T08:45:50.182Z,225
2017-06-28T08:46:30.805Z,225
2017-06-28T08:47:11.377Z,230
2017-06-28T08:47:51.946Z,230
2017-06-28T08:48:32.558Z,235
2017-06-28T08:49:13.154Z,230
2017-06-28T08:49:53.781Z,225
2017-06-28T08:50:34.363Z,230
2017-06-28T08:51:14.936Z,230
2017-06-28T08:51:55.549Z,230
2017-06-28T08:52:36.161Z,225
2017-06-28T08:53:16.752Z,215
2017-06-28T08:53:57.331Z,215
2017-06-28T08:54:37.916Z,210
2017-06-28T08:55:18.528Z,205
2017-06-28T08:55:59.310Z,205
2017-06-28T08:56:39.877Z,200
2017-06-28T08:57:20.472Z,205
2017-06-28T08:58:01.086Z,205
2017-06-28T08:58:41.700Z,205
2017-06-28T08:59:22.306Z,205
2017-06-28T09:00:02.895Z,200
2017-06-28T09:00:43.479Z,210
2017-06-28T09:01:24.088Z,210
2017-06-28T09:02:04.669Z,205
2017-06-28T09:02:45.252Z,200
2017-06-28T09:03:25.839Z,195
2017-06-28T09:04:06.823Z,175
2017-06-28T09:04:47.409Z,185
2017-06-28T09:05:28.004Z,185
2017-06-28T09:06:08.608Z,180
2017-06-28T09:06:49.536Z,180
2017-06-28T09:07:30.165Z,180
2017-06-28T09:08:10.748Z,180
2017-06-28T09:08:51.329Z,180
2017-06-28T09:09:31.949Z,175
2017-06-28T09:10:12.532Z,175
2017-06-28T09:10:53.172Z,175
2017-06-28T09:11:33.755Z,170
2017-06-28T09:12:14.346Z,165
2017-06-28T09:12:54.919Z,170
2017-06-28T09:13:35.531Z,170
2017-06-28T09:14:16.098Z,170
2017-06-28T09:14:56.675Z,165
2017-06-28T09:15:37.242Z,165
2017-06-28T09:16:17.811Z,165
2017-06-28T09:16:58.424Z,170
2017-06-28T09:17:39.102Z,165
2017-06-28T09:18:19.671Z,160
2017-06-28T09:19:00.300Z,160
2017-06-28T09:19:40.875Z,155
2017-06-28T09:20:21.470Z,150
2017-06-28T09:21:02.042Z,155
2017-06-28T09:21:42.602Z,155
2017-06-28T09:22:23.178Z,155
2017-06-28T09:23:03.832Z,155
2017-06-28T09:23:44.427Z,155
2017-06-28T09:24:25.030Z,155
2017-06-28T09:25:05.596Z,155
2017-06-28T09:25:46.185Z,150
2017-06-28T09:26:26.792Z,155
2017-06-28T09:27:07.387Z,155
2017-06-28T09:27:48.012Z,155
2017-06-28T09:28:28.601Z,155
2017-06-28T09:29:09.190Z,150
2017-06-28T09:29:49.790Z,150
2017-06-28T09:30:30.349Z,150
2017-06-28T09:31:10.957Z,150
2017-06-28T09:31:51.540Z,150